createdAt,value
2022-12-08T00:04:04.440Z,69.56
2022-12-08T00:14:33.687Z,69.56
2022-12-08T00:25:01.254Z,69.80
2022-12-08T00:35:28.909Z,69.67
2022-12-08T00:45:56.373Z,69.67
2022-12-08T00:56:24.272Z,69.52
2022-12-08T01:06:51.726Z,69.72
2022-12-08T01:17:19.203Z,69.76
2022-12-08T01:27:46.612Z,70.17
2022-12-08T01:38:14.195Z,69.95
2022-12-08T01:48:41.754Z,69.83
2022-12-08T01:59:09.626Z,69.80
2022-12-08T02:09:37.923Z,69.85
2022-12-08T02:20:34.475Z,70.02
2022-12-08T02:31:12.384Z,70.08
2022-12-08T02:41:47.700Z,69.94
2022-12-08T02:52:43.091Z,69.91
2022-12-08T03:03:20.678Z,70.08
2022-12-08T03:13:52.592Z,70.16
2022-12-08T03:24:21.101Z,70.05
2022-12-08T03:34:50.595Z,70.12
2022-12-08T03:45:18.168Z,70.36
2022-12-08T03:55:45.957Z,69.88
2022-12-08T04:06:13.771Z,69.81
2022-12-08T04:16:41.374Z,69.51
2022-12-08T04:27:08.781Z,68.34
2022-12-08T04:37:36.180Z,68.00
2022-12-08T04:48:04.019Z,68.25
2022-12-08T04:58:31.564Z,68.38
2022-12-08T05:08:58.980Z,69.00
2022-12-08T05:19:26.650Z,69.28
2022-12-08T05:29:54.033Z,69.15
2022-12-08T05:40:21.635Z,67.93
2022-12-08T05:50:51.150Z,67.58
2022-12-08T06:01:27.592Z,68.12
2022-12-08T06:11:54.960Z,68.41
2022-12-08T06:22:22.338Z,68.84
2022-12-08T06:32:49.763Z,68.92
2022-12-08T06:43:17.238Z,68.85
2022-12-08T06:53:45.539Z,69.29
2022-12-08T07:04:13.013Z,69.05
2022-12-08T07:14:40.468Z,69.04
2022-12-08T07:25:09.197Z,68.68
2022-12-08T07:35:35.501Z,68.90
2022-12-08T07:46:03.531Z,68.55
2022-12-08T07:56:31.177Z,67.91
2022-12-08T08:06:58.595Z,67.74
2022-12-08T08:17:26.143Z,67.44
2022-12-08T08:27:53.744Z,67.69
2022-12-08T08:38:21.588Z,68.02
2022-12-08T08:48:49.538Z,68.14
2022-12-08T08:59:17.527Z,68.30
2022-12-08T09:09:45.054Z,68.14
2022-12-08T09:20:13.122Z,68.16
2022-12-08T09:30:40.598Z,68.29
2022-12-08T09:41:19.014Z,67.80
2022-12-08T09:51:47.393Z,67.42
2022-12-08T10:02:24.416Z,67.01
2022-12-08T10:12:59.704Z,66.84
2022-12-08T10:23:32.969Z,66.67
2022-12-08T10:34:02.608Z,66.45
2022-12-08T10:44:30.676Z,66.30
2022-12-08T10:55:03.101Z,66.34
2022-12-08T11:05:33.574Z,66.17
2022-12-08T11:16:01.049Z,66.21
2022-12-08T11:26:33.328Z,66.57
2022-12-08T11:37:02.335Z,66.91
2022-12-08T11:47:35.614Z,67.52
2022-12-08T11:58:14.389Z,68.16
2022-12-08T12:08:51.574Z,68.61
2022-12-08T12:19:21.682Z,69.08
2022-12-08T12:29:55.952Z,69.28
2022-12-08T12:40:26.534Z,69.45
2022-12-08T12:50:55.580Z,69.48
2022-12-08T13:01:53.526Z,70.00
2022-12-08T13:12:28.035Z,70.04
2022-12-08T13:23:27.113Z,70.15
2022-12-08T13:33:53.157Z,70.49
2022-12-08T14:06:15.473Z,70.82
2022-12-08T14:16:51.276Z,70.61
2022-12-08T14:27:22.740Z,69.99
2022-12-08T14:37:53.190Z,69.56
2022-12-08T14:48:29.076Z,69.62
2022-12-08T14:59:08.684Z,69.19
2022-12-08T15:09:39.650Z,68.91
2022-12-08T15:20:33.210Z,68.84
2022-12-08T15:31:02.448Z,68.86
2022-12-08T15:41:29.997Z,68.47
2022-12-08T15:52:08.038Z,68.51
2022-12-08T16:03:13.025Z,68.75
2022-12-08T16:14:16.663Z,68.75
2022-12-08T16:24:33.060Z,68.74
2022-12-08T16:35:01.283Z,68.90
2022-12-08T16:45:31.098Z,68.76
2022-12-08T16:55:58.488Z,68.60
2022-12-08T17:06:26.028Z,68.61
2022-12-08T17:16:53.756Z,68.40
2022-12-08T17:27:21.537Z,68.08
2022-12-08T17:37:49.179Z,68.05
2022-12-08T17:48:17.504Z,68.26
2022-12-08T17:58:49.857Z,68.41
2022-12-08T18:09:23.075Z,68.65
2022-12-08T18:19:50.647Z,68.93
2022-12-08T18:30:20.722Z,68.87
2022-12-08T18:40:48.143Z,68.51
2022-12-08T18:51:17.102Z,68.23
2022-12-08T19:01:44.915Z,67.99
2022-12-08T19:12:13.350Z,68.01
2022-12-08T19:22:40.787Z,67.99
2022-12-08T19:33:08.249Z,67.73
2022-12-08T19:43:52.866Z,67.96
2022-12-08T19:54:20.423Z,67.89
2022-12-08T20:04:47.871Z,67.64
2022-12-08T20:15:15.876Z,67.56
2022-12-08T20:25:45.244Z,67.59
2022-12-08T20:36:18.832Z,67.56
2022-12-08T20:46:49.536Z,67.26
2022-12-08T20:57:17.261Z,67.26
2022-12-08T21:07:45.018Z,67.22
2022-12-08T21:18:12.654Z,67.49
2022-12-08T21:28:40.375Z,67.25
2022-12-08T21:39:12.818Z,67.41
2022-12-08T21:49:40.537Z,67.50
2022-12-08T22:00:10.679Z,67.67
2022-12-08T22:10:38.788Z,67.50
2022-12-08T22:21:11.306Z,67.39
2022-12-08T22:31:38.935Z,67.58
2022-12-08T22:42:06.904Z,67.77
2022-12-08T22:52:34.586Z,67.69
2022-12-08T23:03:02.376Z,67.62
2022-12-08T23:13:29.851Z,67.50
2022-12-08T23:23:57.269Z,67.37
2022-12-08T23:34:24.929Z,67.19
2022-12-08T23:44:52.836Z,67.11
2022-12-08T23:55:21.148Z,67.21
